createdAt,value
2017-10-10T00:01:32.233Z,84.00
2017-10-10T00:04:00.578Z,84.50
2017-10-10T00:06:28.130Z,83.40
2017-10-10T00:08:55.802Z,83.60
2017-10-10T00:11:24.283Z,83.60
2017-10-10T00:13:51.881Z,83.70
2017-10-10T00:16:20.275Z,84.30
2017-10-10T00:18:53.623Z,84.20
2017-10-10T00:21:21.223Z,83.90
2017-10-10T00:23:49.541Z,84.40
2017-10-10T00:26:17.221Z,84.00
2017-10-10T00:28:44.773Z,83.90
2017-10-10T00:31:12.352Z,83.70
2017-10-10T00:33:40.011Z,83.10
2017-10-10T00:36:07.570Z,83.60
2017-10-10T00:38:35.310Z,83.60
2017-10-10T00:41:02.970Z,83.90
2017-10-10T00:43:30.551Z,83.80
2017-10-10T00:45:58.144Z,83.60
2017-10-10T00:48:26.540Z,84.80
2017-10-10T00:50:54.854Z,84.00
2017-10-10T00:53:22.396Z,83.60
2017-10-10T00:55:50.004Z,83.20
2017-10-10T00:58:17.547Z,82.80
2017-10-10T01:00:45.156Z,82.90
2017-10-10T01:03:13.536Z,83.70
2017-10-10T01:05:41.861Z,83.40
2017-10-10T01:08:09.476Z,83.30
2017-10-10T01:10:37.830Z,83.40
2017-10-10T01:13:06.211Z,82.80
2017-10-10T01:15:33.787Z,82.80
2017-10-10T01:18:02.208Z,83.20
2017-10-10T01:20:29.779Z,83.20
2017-10-10T01:22:57.366Z,82.80
2017-10-10T01:25:24.924Z,82.70
2017-10-10T01:27:53.203Z,82.80
2017-10-10T01:30:20.814Z,82.40
2017-10-10T01:32:48.381Z,82.50
2017-10-10T01:35:15.978Z,82.80
2017-10-10T01:37:43.569Z,82.80
2017-10-10T01:40:11.898Z,83.50
2017-10-10T01:42:39.512Z,83.10
2017-10-10T01:45:07.890Z,84.30
2017-10-10T01:47:36.267Z,83.40
2017-10-10T01:50:03.869Z,82.90
2017-10-10T01:52:31.446Z,83.10
2017-10-10T01:54:59.077Z,83.60
2017-10-10T01:57:26.638Z,83.70
2017-10-10T01:59:54.214Z,84.00
2017-10-10T02:02:21.759Z,82.90
2017-10-10T02:04:50.156Z,82.90
2017-10-10T02:07:17.742Z,82.10
2017-10-10T02:09:45.298Z,82.40
2017-10-10T02:12:12.909Z,83.10
2017-10-10T02:14:41.221Z,83.30
2017-10-10T02:17:08.781Z,82.40
2017-10-10T02:19:36.364Z,82.60
2017-10-10T02:22:03.958Z,82.60
2017-10-10T02:24:31.542Z,83.10
2017-10-10T02:26:59.936Z,83.40
2017-10-10T02:29:27.518Z,83.70
2017-10-10T02:31:55.160Z,87.70
2017-10-10T02:34:22.817Z,83.70
2017-10-10T02:36:50.616Z,83.50
2017-10-10T02:39:18.687Z,83.30
2017-10-10T02:41:46.316Z,83.40
2017-10-10T02:44:13.926Z,83.50
2017-10-10T02:46:41.933Z,83.40
2017-10-10T02:49:09.923Z,83.40
2017-10-10T02:51:37.535Z,83.70
2017-10-10T02:54:05.606Z,83.30
2017-10-10T02:56:33.238Z,84.70
2017-10-10T02:59:00.997Z,85.70
2017-10-10T03:01:33.586Z,85.80
2017-10-10T03:04:01.195Z,85.30
2017-10-10T03:06:29.526Z,86.20
2017-10-10T03:08:57.142Z,85.50
2017-10-10T03:11:25.517Z,85.80
2017-10-10T03:13:53.855Z,85.80
2017-10-10T03:16:21.437Z,85.40
2017-10-10T03:18:49.015Z,85.30
2017-10-10T03:21:17.324Z,85.40
2017-10-10T03:23:44.935Z,84.70
2017-10-10T03:26:12.513Z,84.80
2017-10-10T03:28:40.930Z,85.20
2017-10-10T03:31:09.289Z,84.80
2017-10-10T03:33:36.869Z,84.70
2017-10-10T03:36:04.434Z,84.80
2017-10-10T03:38:32.302Z,85.00
2017-10-10T03:40:59.918Z,85.00
2017-10-10T03:43:28.264Z,85.20
2017-10-10T03:45:56.007Z,84.50
2017-10-10T03:48:23.584Z,84.70
2017-10-10T03:50:51.943Z,84.30
2017-10-10T03:53:19.598Z,84.50
2017-10-10T03:55:47.233Z,84.40
2017-10-10T03:58:15.591Z,84.60
2017-10-10T04:00:43.158Z,84.50
2017-10-10T04:03:10.832Z,84.00
2017-10-10T04:05:39.560Z,84.10
2017-10-10T04:08:12.235Z,84.20
2017-10-10T04:10:41.017Z,84.30
2017-10-10T04:13:08.704Z,83.80
2017-10-10T04:15:36.416Z,83.80
2017-10-10T04:18:04.108Z,83.70
2017-10-10T04:20:31.755Z,83.80
2017-10-10T04:23:00.174Z,84.50
2017-10-10T04:25:27.834Z,84.30
2017-10-10T04:27:55.442Z,85.00
2017-10-10T04:30:23.822Z,85.20
2017-10-10T04:32:52.200Z,85.70
2017-10-10T04:35:20.679Z,85.00
2017-10-10T04:37:48.237Z,85.90
2017-10-10T04:40:15.895Z,85.70
2017-10-10T04:42:43.550Z,86.80
2017-10-10T04:45:11.287Z,87.60
2017-10-10T04:47:38.860Z,86.50
2017-10-10T04:50:06.423Z,87.00
2017-10-10T04:52:33.987Z,87.20
2017-10-10T04:55:01.617Z,87.20
2017-10-10T04:57:29.653Z,87.10
2017-10-10T04:59:57.962Z,87.10
2017-10-10T05:02:25.585Z,86.10
2017-10-10T05:04:54.325Z,85.90
2017-10-10T05:07:21.925Z,85.70
2017-10-10T05:09:49.534Z,85.90
2017-10-10T05:12:17.151Z,85.70
2017-10-10T05:14:44.752Z,86.30
2017-10-10T05:17:12.771Z,85.50
2017-10-10T05:19:40.526Z,87.70
2017-10-10T05:22:08.095Z,86.60
2017-10-10T05:24:35.733Z,85.70
2017-10-10T05:27:03.315Z,85.20
2017-10-10T05:29:30.946Z,85.30
2017-10-10T05:31:58.544Z,85.20
2017-10-10T05:34:26.116Z,85.80
2017-10-10T05:36:54.506Z,86.90
2017-10-10T05:39:22.922Z,86.00
2017-10-10T05:41:50.514Z,85.10
2017-10-10T05:44:18.113Z,84.80
2017-10-10T05:46:46.470Z,85.80
2017-10-10T05:49:14.833Z,85.40
2017-10-10T05:51:42.493Z,85.70
2017-10-10T05:54:10.073Z,86.00
2017-10-10T05:56:37.720Z,86.30
2017-10-10T05:59:05.352Z,86.70
2017-10-10T06:01:33.351Z,86.80
2017-10-10T06:04:00.977Z,86.60
2017-10-10T06:06:28.590Z,87.00
2017-10-10T06:08:56.263Z,86.70
2017-10-10T06:11:24.207Z,87.40
2017-10-10T06:13:52.030Z,86.60
2017-10-10T06:16:19.649Z,86.80
2017-10-10T06:18:47.275Z,86.40
2017-10-10T06:21:14.848Z,86.00
2017-10-10T06:23:42.533Z,85.90
2017-10-10T06:26:10.076Z,86.00
2017-10-10T06:28:37.696Z,86.10
2017-10-10T06:31:06.111Z,86.20
2017-10-10T06:33:33.693Z,86.20
2017-10-10T06:36:01.295Z,86.70
2017-10-10T06:38:29.680Z,85.70
2017-10-10T06:40:57.340Z,85.70
2017-10-10T06:43:25.705Z,85.80
2017-10-10T06:45:54.672Z,85.90
2017-10-10T06:48:22.235Z,85.80
2017-10-10T06:50:49.848Z,85.90
2017-10-10T06:53:17.406Z,85.20
2017-10-10T06:55:45.053Z,85.70
2017-10-10T06:58:13.394Z,85.20
2017-10-10T07:00:41.012Z,85.10
2017-10-10T07:03:08.569Z,84.60
2017-10-10T07:05:36.118Z,84.90
2017-10-10T07:08:03.741Z,84.70
2017-10-10T07:10:31.372Z,85.00
2017-10-10T07:12:58.912Z,85.00
2017-10-10T07:15:26.554Z,84.10
2017-10-10T07:17:54.941Z,84.00
2017-10-10T07:20:23.357Z,84.20
2017-10-10T07:22:50.940Z,84.10
2017-10-10T07:25:18.571Z,83.50
2017-10-10T07:27:46.156Z,83.80
2017-10-10T07:30:13.717Z,83.90
2017-10-10T07:32:41.681Z,83.60
2017-10-10T07:35:09.305Z,83.60
2017-10-10T07:37:37.636Z,84.30
2017-10-10T07:40:05.651Z,84.00
2017-10-10T07:42:34.100Z,84.50
2017-10-10T07:45:01.647Z,83.90
2017-10-10T07:47:29.243Z,83.60
2017-10-10T07:49:57.730Z,84.10
2017-10-10T07:52:26.195Z,83.30
2017-10-10T07:54:55.480Z,83.80
2017-10-10T07:59:52.905Z,83.80
2017-10-10T08:02:21.261Z,82.90
2017-10-10T08:04:50.328Z,82.70
2017-10-10T08:07:17.921Z,82.70
2017-10-10T08:09:45.935Z,82.50
2017-10-10T08:12:13.589Z,82.70
2017-10-10T08:14:41.244Z,82.40
2017-10-10T08:17:09.217Z,82.30
2017-10-10T08:19:36.796Z,82.60
2017-10-10T08:22:04.405Z,82.60
2017-10-10T08:24:32.730Z,83.00
2017-10-10T08:27:00.488Z,82.60
2017-10-10T08:29:28.144Z,82.90
2017-10-10T08:31:55.776Z,82.80
2017-10-10T08:34:24.153Z,83.50
2017-10-10T08:36:52.560Z,83.80
2017-10-10T08:39:20.184Z,83.00
2017-10-10T08:41:48.544Z,84.60
2017-10-10T08:44:16.198Z,83.00
2017-10-10T08:46:44.207Z,82.90
2017-10-10T08:49:12.609Z,83.30
2017-10-10T08:51:40.174Z,82.80
2017-10-10T08:54:07.770Z,82.70
2017-10-10T08:56:35.384Z,83.10
2017-10-10T08:59:03.696Z,82.80
2017-10-10T09:01:31.359Z,82.30
2017-10-10T09:03:58.963Z,81.60
2017-10-10T09:06:27.289Z,82.00
2017-10-10T09:09:04.572Z,81.70
2017-10-10T09:11:32.138Z,81.80
2017-10-10T09:13:59.805Z,81.70
2017-10-10T09:16:27.462Z,81.90
2017-10-10T09:18:55.039Z,81.90
2017-10-10T09:21:22.674Z,81.90
2017-10-10T09:23:50.294Z,81.90
2017-10-10T09:26:17.957Z,82.40
2017-10-10T09:28:45.521Z,82.70
2017-10-10T09:31:13.930Z,81.80
2017-10-10T09:33:41.556Z,81.70
2017-10-10T09:36:09.967Z,82.10
2017-10-10T09:38:38.341Z,82.10
2017-10-10T09:41:06.021Z,81.60
2017-10-10T09:43:33.590Z,81.30
2017-10-10T09:46:01.428Z,81.70
2017-10-10T09:48:29.808Z,81.50
2017-10-10T09:50:58.193Z,82.00
2017-10-10T09:53:25.863Z,81.00
2017-10-10T09:55:53.483Z,80.30
2017-10-10T09:58:21.825Z,80.30
2017-10-10T10:00:49.421Z,80.80
2017-10-10T10:03:16.981Z,80.10
2017-10-10T10:05:45.418Z,81.00
2017-10-10T10:08:13.028Z,79.70
2017-10-10T10:10:40.664Z,79.80
2017-10-10T10:13:08.286Z,79.90
2017-10-10T10:15:36.728Z,80.50
2017-10-10T10:18:04.354Z,80.00
2017-10-10T10:20:31.959Z,80.60
2017-10-10T10:22:59.604Z,80.60
2017-10-10T10:25:27.212Z,81.00
2017-10-10T10:27:56.639Z,81.40
2017-10-10T10:30:24.334Z,80.90
2017-10-10T10:32:51.933Z,80.80
2017-10-10T10:35:20.286Z,81.10
2017-10-10T10:37:48.326Z,81.00
2017-10-10T10:40:15.917Z,85.00
2017-10-10T10:42:43.569Z,81.60
2017-10-10T10:45:11.183Z,81.80
2017-10-10T10:47:38.901Z,81.90
2017-10-10T10:50:06.525Z,81.70
2017-10-10T10:52:34.109Z,81.50
2017-10-10T10:55:02.682Z,81.10
2017-10-10T10:57:30.281Z,81.50
2017-10-10T10:59:57.862Z,81.10
2017-10-10T11:02:26.342Z,81.20
2017-10-10T11:04:54.770Z,81.20
2017-10-10T11:07:22.315Z,80.70
2017-10-10T11:09:50.357Z,80.20
2017-10-10T11:12:18.010Z,79.70
2017-10-10T11:14:45.655Z,79.80
2017-10-10T11:17:13.335Z,78.60
2017-10-10T11:19:42.426Z,80.40
2017-10-10T11:22:10.036Z,79.60
2017-10-10T11:24:37.705Z,78.90
2017-10-10T11:27:05.442Z,78.40
2017-10-10T11:29:33.043Z,77.00
2017-10-10T11:32:00.695Z,77.40
2017-10-10T11:34:28.302Z,77.40
2017-10-10T11:36:56.415Z,76.50
2017-10-10T11:39:24.055Z,76.10
2017-10-10T11:41:51.804Z,76.10
2017-10-10T11:44:20.185Z,76.60
2017-10-10T11:46:48.595Z,73.90
2017-10-10T11:49:16.274Z,73.20
2017-10-10T11:51:43.946Z,71.40
2017-10-10T11:54:11.531Z,71.20
2017-10-10T11:56:39.162Z,67.90
2017-10-10T11:59:07.490Z,65.80
2017-10-10T12:01:35.084Z,66.00
2017-10-10T12:04:03.105Z,66.20
2017-10-10T12:06:31.003Z,66.70
2017-10-10T12:08:59.638Z,67.70
2017-10-10T12:11:27.345Z,67.70
2017-10-10T12:13:55.717Z,66.80
2017-10-10T12:16:24.175Z,67.70
2017-10-10T12:18:51.739Z,66.60
2017-10-10T12:21:19.376Z,67.10
2017-10-10T12:23:46.975Z,67.90
2017-10-10T12:26:14.676Z,67.80
2017-10-10T12:31:12.722Z,68.40
2017-10-10T12:33:40.294Z,67.40
2017-10-10T12:36:08.004Z,66.90
2017-10-10T12:38:35.635Z,67.30
2017-10-10T12:41:03.400Z,67.10
2017-10-10T12:43:31.737Z,67.60
2017-10-10T12:45:59.400Z,67.00
2017-10-10T12:48:27.095Z,68.00
2017-10-10T12:50:55.483Z,69.10
2017-10-10T12:53:25.632Z,70.50
2017-10-10T12:55:54.101Z,71.10
2017-10-10T12:58:21.891Z,70.70
2017-10-10T13:00:49.490Z,70.50
2017-10-10T13:03:18.828Z,70.30
2017-10-10T13:05:46.390Z,69.80
2017-10-10T13:08:13.988Z,69.70
2017-10-10T13:10:41.554Z,69.90
2017-10-10T13:13:09.214Z,70.40
2017-10-10T13:15:36.789Z,70.50
2017-10-10T13:18:04.359Z,71.50
2017-10-10T13:20:32.507Z,72.70
2017-10-10T13:23:00.064Z,72.40
2017-10-10T13:25:27.697Z,73.70
2017-10-10T13:27:55.335Z,72.60
2017-10-10T13:30:23.731Z,72.50
2017-10-10T13:32:51.336Z,72.00
2017-10-10T13:35:19.049Z,72.60
2017-10-10T13:37:47.368Z,72.90
2017-10-10T13:40:16.100Z,72.30
2017-10-10T13:42:54.794Z,71.00
2017-10-10T13:45:23.140Z,70.70
2017-10-10T13:47:55.679Z,71.20
2017-10-10T13:50:24.033Z,72.00
2017-10-10T13:52:51.611Z,71.70
2017-10-10T13:55:20.070Z,72.20
2017-10-10T13:57:47.678Z,72.40
2017-10-10T14:00:16.072Z,73.60
2017-10-10T14:02:43.618Z,73.10
2017-10-10T14:05:12.117Z,74.60
2017-10-10T14:07:39.718Z,76.10
2017-10-10T14:10:07.426Z,75.60
2017-10-10T14:12:35.401Z,76.00
2017-10-10T14:15:03.012Z,76.80
2017-10-10T14:17:30.672Z,76.40
2017-10-10T14:19:58.263Z,76.60
2017-10-10T14:22:26.721Z,76.60
2017-10-10T14:24:55.040Z,76.40
2017-10-10T14:27:23.009Z,76.00
2017-10-10T14:29:51.389Z,76.90
2017-10-10T14:32:19.726Z,77.00
2017-10-10T14:34:47.353Z,77.10
2017-10-10T14:37:14.915Z,77.60
2017-10-10T14:39:42.591Z,77.90
2017-10-10T14:42:10.255Z,78.00
2017-10-10T14:44:37.832Z,78.00
2017-10-10T14:47:05.417Z,78.50
2017-10-10T14:49:33.810Z,79.20
2017-10-10T14:52:01.873Z,78.50
2017-10-10T14:54:29.532Z,79.00
2017-10-10T14:56:57.157Z,77.90
2017-10-10T14:59:24.721Z,78.00
2017-10-10T15:01:52.333Z,77.50
2017-10-10T15:04:20.693Z,78.40
2017-10-10T15:06:48.278Z,77.10
2017-10-10T15:09:16.704Z,77.40
2017-10-10T15:11:44.317Z,76.90
2017-10-10T15:14:12.856Z,78.00
2017-10-10T15:16:40.480Z,76.70
2017-10-10T15:19:12.980Z,77.10
2017-10-10T15:21:40.660Z,77.20
2017-10-10T15:24:08.251Z,77.30
2017-10-10T15:26:36.668Z,76.90
2017-10-10T15:29:04.769Z,77.00
2017-10-10T15:31:32.359Z,76.70
2017-10-10T15:34:00.805Z,77.10
2017-10-10T15:36:28.409Z,76.80
2017-10-10T15:38:56.919Z,77.10
2017-10-10T15:41:24.537Z,76.80
2017-10-10T15:43:52.163Z,77.00
2017-10-10T15:46:19.773Z,77.10
2017-10-10T15:48:48.153Z,77.20
2017-10-10T15:51:17.267Z,77.30
2017-10-10T15:53:45.660Z,77.50
2017-10-10T15:56:13.250Z,77.30
2017-10-10T15:58:40.872Z,77.10
2017-10-10T16:01:09.271Z,77.80
2017-10-10T16:03:36.937Z,77.30
2017-10-10T16:06:04.588Z,77.30
2017-10-10T16:08:32.244Z,77.10
2017-10-10T16:10:59.926Z,77.30
2017-10-10T16:13:27.539Z,77.30
2017-10-10T16:15:55.893Z,77.80
2017-10-10T16:18:23.548Z,77.60
2017-10-10T16:20:51.950Z,77.70
2017-10-10T16:23:19.557Z,77.70
2017-10-10T16:25:47.115Z,77.80
2017-10-10T16:28:14.761Z,77.80
2017-10-10T16:30:43.177Z,78.40
2017-10-10T16:33:11.204Z,78.00
2017-10-10T16:35:39.591Z,78.90
2017-10-10T16:38:07.940Z,79.40
2017-10-10T16:40:43.700Z,78.20
2017-10-10T16:43:22.407Z,78.40
2017-10-10T16:45:49.984Z,78.60
2017-10-10T16:48:19.194Z,79.20
2017-10-10T16:50:47.576Z,79.30
2017-10-10T16:53:15.939Z,80.00
2017-10-10T16:55:43.605Z,79.00
2017-10-10T16:58:11.259Z,79.10
2017-10-10T17:00:38.946Z,79.20
2017-10-10T17:03:07.400Z,79.80
2017-10-10T17:05:34.957Z,79.30
2017-10-10T17:08:02.569Z,79.30
2017-10-10T17:10:35.499Z,79.30
2017-10-10T17:13:09.158Z,79.90
2017-10-10T17:15:37.015Z,79.50
2017-10-10T17:18:05.402Z,80.20
2017-10-10T17:20:33.008Z,79.60
2017-10-10T17:23:00.598Z,79.90
2017-10-10T17:25:28.466Z,79.90
2017-10-10T17:27:56.438Z,80.00
2017-10-10T17:30:23.999Z,80.00
2017-10-10T17:32:55.942Z,80.60
2017-10-10T17:35:23.519Z,80.10
2017-10-10T17:37:56.484Z,80.20
2017-10-10T17:40:24.116Z,80.10
2017-10-10T17:42:51.712Z,80.20
2017-10-10T17:45:19.309Z,80.30
2017-10-10T17:47:47.669Z,80.90
2017-10-10T17:50:15.297Z,80.40
2017-10-10T17:52:42.906Z,80.30
2017-10-10T17:55:11.291Z,80.90
2017-10-10T17:57:44.722Z,80.90
2017-10-10T18:00:12.351Z,80.40
2017-10-10T18:02:40.679Z,81.00
2017-10-10T18:05:08.318Z,80.30
2017-10-10T18:07:35.943Z,80.30
2017-10-10T18:10:04.720Z,80.30
2017-10-10T18:12:32.323Z,83.10
2017-10-10T18:15:00.689Z,80.40
2017-10-10T18:17:29.028Z,81.00
2017-10-10T18:19:56.608Z,80.70
2017-10-10T18:22:24.273Z,80.70
2017-10-10T18:24:52.661Z,82.00
2017-10-10T18:27:21.017Z,81.20
2017-10-10T18:29:48.669Z,80.70
2017-10-10T18:32:16.275Z,80.80
2017-10-10T18:34:45.863Z,81.00
2017-10-10T18:37:14.184Z,80.90
2017-10-10T18:39:41.782Z,80.90
2017-10-10T18:42:09.421Z,81.00
2017-10-10T18:44:37.001Z,80.90
2017-10-10T18:47:05.225Z,80.90
2017-10-10T18:49:32.997Z,81.00
2017-10-10T18:52:00.682Z,80.90
2017-10-10T18:54:28.313Z,80.80
2017-10-10T18:56:56.874Z,81.50
2017-10-10T18:59:25.270Z,81.40
2017-10-10T19:01:53.660Z,80.90
2017-10-10T19:04:31.742Z,81.20
2017-10-10T19:06:59.353Z,80.80
2017-10-10T19:09:27.009Z,80.80
2017-10-10T19:11:54.712Z,80.90
2017-10-10T19:14:22.670Z,80.80
2017-10-10T19:16:50.364Z,80.60
2017-10-10T19:21:47.004Z,80.20
2017-10-10T19:24:28.861Z,80.10
2017-10-10T19:26:56.568Z,80.10
2017-10-10T19:29:24.296Z,80.10
2017-10-10T19:31:52.648Z,80.00
2017-10-10T19:34:20.359Z,80.00
2017-10-10T19:36:48.881Z,80.30
2017-10-10T19:39:17.324Z,80.00
2017-10-10T19:41:44.887Z,80.00
2017-10-10T19:44:12.581Z,80.00
2017-10-10T19:46:41.003Z,80.60
2017-10-10T19:49:22.941Z,80.20
2017-10-10T19:51:50.553Z,80.30
2017-10-10T19:54:32.479Z,80.20
2017-10-10T19:57:00.244Z,84.60
2017-10-10T19:59:28.684Z,80.30
2017-10-10T20:02:02.052Z,80.80
2017-10-10T20:04:29.806Z,80.40
2017-10-10T20:06:57.993Z,80.60
2017-10-10T20:09:31.810Z,80.70
2017-10-10T20:12:04.413Z,80.80
2017-10-10T20:14:37.773Z,81.40
2017-10-10T20:17:05.326Z,81.20
2017-10-10T20:19:32.943Z,81.50
2017-10-10T20:22:01.348Z,82.40
2017-10-10T20:24:28.935Z,81.90
2017-10-10T20:26:56.576Z,81.70
2017-10-10T20:29:24.254Z,82.10
2017-10-10T20:31:51.909Z,82.00
2017-10-10T20:34:19.507Z,82.00
2017-10-10T20:36:47.103Z,81.60
2017-10-10T20:39:14.670Z,81.60
2017-10-10T20:41:42.244Z,81.50
2017-10-10T20:44:09.853Z,81.30
2017-10-10T20:46:37.477Z,81.10
2017-10-10T20:49:05.137Z,81.20
2017-10-10T20:51:32.818Z,81.10
2017-10-10T20:54:01.386Z,81.20
2017-10-10T20:56:30.173Z,81.20
2017-10-10T20:58:58.654Z,81.90
2017-10-10T21:01:26.294Z,81.40
2017-10-10T21:03:54.184Z,81.50
2017-10-10T21:06:21.819Z,81.40
2017-10-10T21:08:49.368Z,81.50
2017-10-10T21:11:17.748Z,81.60
2017-10-10T21:13:46.553Z,81.60
2017-10-10T21:16:14.965Z,81.60
2017-10-10T21:18:42.516Z,81.50
2017-10-10T21:21:10.170Z,81.70
2017-10-10T21:23:37.815Z,81.70
2017-10-10T21:26:05.442Z,81.80
2017-10-10T21:28:33.794Z,81.30
2017-10-10T21:31:01.424Z,81.70
2017-10-10T21:33:29.062Z,81.80
2017-10-10T21:35:57.453Z,82.20
2017-10-10T21:38:25.828Z,82.20
2017-10-10T21:40:54.200Z,82.30
2017-10-10T21:43:27.612Z,82.10
2017-10-10T21:45:55.276Z,82.50
2017-10-10T21:48:22.884Z,83.00
2017-10-10T21:50:50.539Z,83.40
2017-10-10T21:53:18.122Z,83.90
2017-10-10T21:55:45.726Z,83.80
2017-10-10T21:58:19.070Z,84.90
2017-10-10T22:00:46.691Z,84.90
2017-10-10T22:03:14.297Z,85.30
2017-10-10T22:05:41.878Z,84.60
2017-10-10T22:08:10.263Z,84.90
2017-10-10T22:10:38.614Z,85.00
2017-10-10T22:13:06.360Z,84.90
2017-10-10T22:15:33.914Z,85.00
2017-10-10T22:18:01.677Z,85.10
2017-10-10T22:20:29.361Z,85.20
2017-10-10T22:22:56.953Z,85.10
2017-10-10T22:25:24.568Z,85.00
2017-10-10T22:27:52.183Z,84.80
2017-10-10T22:30:21.325Z,84.50
2017-10-10T22:32:48.927Z,84.50
2017-10-10T22:35:17.384Z,84.40
2017-10-10T22:37:44.970Z,84.40
2017-10-10T22:40:12.581Z,84.40
2017-10-10T22:42:40.267Z,84.40
2017-10-10T22:45:07.857Z,84.40
2017-10-10T22:47:35.428Z,84.30
2017-10-10T22:50:03.195Z,84.10
2017-10-10T22:52:31.597Z,84.40
2017-10-10T22:55:00.306Z,84.60
2017-10-10T22:57:27.902Z,84.50
2017-10-10T22:59:55.950Z,84.00
2017-10-10T23:02:23.615Z,84.70
2017-10-10T23:04:51.585Z,85.00
2017-10-10T23:07:19.215Z,84.20
2017-10-10T23:09:46.778Z,84.90
2017-10-10T23:12:14.560Z,84.50
2017-10-10T23:14:42.310Z,85.00
2017-10-10T23:17:09.910Z,84.70
2017-10-10T23:19:37.509Z,85.10
2017-10-10T23:22:05.051Z,85.40
2017-10-10T23:24:32.624Z,85.40
2017-10-10T23:27:00.968Z,85.20
2017-10-10T23:29:28.530Z,85.30
2017-10-10T23:31:56.164Z,85.40
2017-10-10T23:34:23.767Z,85.20
2017-10-10T23:36:51.391Z,85.70
2017-10-10T23:39:18.976Z,84.90
2017-10-10T23:41:46.601Z,85.40
2017-10-10T23:44:14.177Z,84.20
2017-10-10T23:46:41.756Z,84.30
2017-10-10T23:49:09.429Z,84.20
2017-10-10T23:51:37.072Z,83.80
2017-10-10T23:54:04.695Z,83.70
2017-10-10T23:56:32.342Z,84.10
2017-10-10T23:58:59.956Z,83.60
